Time;durP1;ratioP1;P1;durP2;ratioP2;P2;SDS_P1;SDS_P2;PMS_P1;PMS_P2;Temp;Humidity;BMP_temperature;BMP_pressure;BME280_temperature;BME280_humidity;BME280_pressure;Samples;Min_cycle;Max_cycle;Signal;HPM_P1;HPM_P2
2023/10/26 00:01:34;;;;;;;2.53;0.50;;;10.30;99.90;;;;;;5032080;28;20025;-80
2023/10/26 00:03:59;;;;;;;4.25;0.82;;;10.30;99.90;;;;;;5036231;28;20038;-80
2023/10/26 00:06:25;;;;;;;0.88;0.60;;;10.30;99.90;;;;;;5042374;28;20045;-80
2023/10/26 00:08:51;;;;;;;2.38;0.60;;;10.30;99.90;;;;;;5037445;28;20030;-80
2023/10/26 00:11:17;;;;;;;0.70;0.70;;;10.30;99.90;;;;;;5034507;28;20034;-80
2023/10/26 00:13:43;;;;;;;1.15;0.70;;;10.30;99.90;;;;;;5040880;28;20047;-80
2023/10/26 00:16:09;;;;;;;22.88;1.67;;;10.30;99.90;;;;;;5035622;28;20078;-81
2023/10/26 00:18:34;;;;;;;1.15;0.70;;;10.30;99.90;;;;;;5030072;28;20026;-80
2023/10/26 00:21:01;;;;;;;1.15;0.75;;;10.20;99.90;;;;;;5027606;28;20033;-80
2023/10/26 00:23:27;;;;;;;0.90;0.90;;;10.20;99.90;;;;;;5034148;28;20040;-81
2023/10/26 00:25:53;;;;;;;1.30;1.02;;;10.20;99.90;;;;;;5037808;28;20199;-79
2023/10/26 00:28:20;;;;;;;2.92;0.80;;;10.20;99.90;;;;;;5036532;28;20065;-81
2023/10/26 00:30:46;;;;;;;2.15;0.73;;;10.20;99.90;;;;;;5038703;28;20044;-80
2023/10/26 00:33:12;;;;;;;0.60;0.60;;;10.20;99.90;;;;;;5019684;28;20029;-79
2023/10/26 00:35:38;;;;;;;0.65;0.50;;;10.20;99.90;;;;;;5041191;28;20124;-81
2023/10/26 00:38:04;;;;;;;3.40;0.70;;;10.20;99.90;;;;;;5034470;28;20056;-81
2023/10/26 00:40:30;;;;;;;2.25;0.60;;;10.20;99.90;;;;;;5034020;28;20124;-79
2023/10/26 00:43:00;;;;;;;3.63;0.68;;;10.30;99.90;;;;;;5032990;28;20235;-78
2023/10/26 00:45:30;;;;;;;1.10;0.50;;;10.20;99.90;;;;;;5040347;28;20040;-79
2023/10/26 00:47:56;;;;;;;1.55;0.80;;;10.30;99.90;;;;;;5030722;28;20044;-80
2023/10/26 00:50:22;;;;;;;4.32;0.95;;;10.30;99.90;;;;;;5032004;28;20025;-80
2023/10/26 00:52:49;;;;;;;26.23;1.70;;;10.30;99.90;;;;;;5030090;28;20089;-80
2023/10/26 00:55:16;;;;;;;1.00;0.75;;;10.30;99.90;;;;;;5042209;28;20105;-79
2023/10/26 00:57:42;;;;;;;11.15;1.42;;;10.30;99.90;;;;;;5032642;28;20030;-81
2023/10/26 01:00:09;;;;;;;2.67;1.00;;;10.30;99.90;;;;;;5033500;28;20674;-80
2023/10/26 01:02:37;;;;;;;0.90;0.90;;;10.30;99.90;;;;;;5040001;28;20088;-80
2023/10/26 01:05:03;;;;;;;8.88;1.48;;;10.30;99.90;;;;;;5031287;28;20033;-80
2023/10/26 01:07:29;;;;;;;2.13;1.42;;;10.30;99.90;;;;;;5030482;28;20663;-77
2023/10/26 01:09:56;;;;;;;1.45;1.35;;;10.30;99.90;;;;;;5037910;28;20037;-79
2023/10/26 01:12:40;;;;;;;5.03;1.90;;;10.40;99.90;;;;;;5035427;28;20048;-80
2023/10/26 01:15:07;;;;;;;2.65;2.20;;;10.40;99.90;;;;;;5039268;28;20037;-79
2023/10/26 01:17:34;;;;;;;2.92;2.72;;;10.40;99.90;;;;;;5037672;28;20087;-79
2023/10/26 01:20:00;;;;;;;4.25;3.55;;;10.30;99.90;;;;;;5039899;28;20040;-79
2023/10/26 01:22:30;;;;;;;4.72;3.58;;;10.40;99.90;;;;;;5035624;28;20030;-79
2023/10/26 01:24:55;;;;;;;5.13;4.05;;;10.40;99.90;;;;;;5032457;28;20080;-79
2023/10/26 01:27:21;;;;;;;5.10;3.63;;;10.30;99.90;;;;;;5040231;28;20038;-79
2023/10/26 01:29:47;;;;;;;4.05;3.72;;;10.30;99.90;;;;;;5036094;28;20033;-80
2023/10/26 01:32:13;;;;;;;4.03;3.63;;;10.40;99.90;;;;;;5028102;28;20038;-80
2023/10/26 01:34:40;;;;;;;3.80;3.50;;;10.40;99.90;;;;;;5039116;28;20036;-79
2023/10/26 01:37:05;;;;;;;4.40;3.85;;;10.30;99.90;;;;;;5036571;28;20075;-79
2023/10/26 01:39:32;;;;;;;4.80;3.45;;;10.30;99.90;;;;;;5036730;28;20111;-79
2023/10/26 01:41:58;;;;;;;3.28;2.97;;;10.30;99.90;;;;;;5033837;28;20124;-79
2023/10/26 01:44:24;;;;;;;2.88;2.65;;;10.30;99.90;;;;;;5058436;28;20107;-79
2023/10/26 01:46:50;;;;;;;2.55;2.35;;;10.30;99.90;;;;;;5037516;28;20034;-79
2023/10/26 01:49:16;;;;;;;2.92;2.55;;;10.30;99.90;;;;;;5036945;28;20784;-80
2023/10/26 01:51:42;;;;;;;4.97;2.47;;;10.20;99.90;;;;;;5048764;28;20451;-80
2023/10/26 01:54:07;;;;;;;2.72;2.53;;;10.20;99.90;;;;;;5046764;28;20033;-80
2023/10/26 01:56:33;;;;;;;3.70;2.17;;;10.20;99.90;;;;;;5039011;28;20052;-81
2023/10/26 01:58:59;;;;;;;7.38;2.63;;;10.20;99.90;;;;;;5035606;28;20482;-82
2023/10/26 02:01:25;;;;;;;4.32;2.47;;;10.20;99.90;;;;;;5032715;28;20044;-83
2023/10/26 02:03:51;;;;;;;7.90;2.55;;;10.20;99.90;;;;;;5041462;28;20036;-82
2023/10/26 02:06:17;;;;;;;4.43;2.10;;;10.20;99.90;;;;;;5047453;28;20045;-81
2023/10/26 02:08:42;;;;;;;1.70;1.58;;;10.20;99.90;;;;;;5044203;28;20083;-82
2023/10/26 02:11:08;;;;;;;2.22;1.20;;;10.20;99.90;;;;;;5032560;28;20657;-81
2023/10/26 02:13:35;;;;;;;2.70;0.77;;;10.10;99.90;;;;;;5021004;28;20403;-82
2023/10/26 02:16:02;;;;;;;0.60;0.60;;;10.10;99.90;;;;;;5040739;28;20028;-81
2023/10/26 02:18:30;;;;;;;30.92;1.90;;;10.10;99.90;;;;;;5035592;28;20183;-81
2023/10/26 02:20:55;;;;;;;2.25;1.02;;;10.10;99.90;;;;;;5036854;28;20045;-82
2023/10/26 02:23:21;;;;;;;6.72;0.82;;;10.10;99.90;;;;;;5035857;28;20080;-81
2023/10/26 02:25:47;;;;;;;0.50;0.50;;;10.10;99.90;;;;;;5031527;28;20116;-80
2023/10/26 02:28:19;;;;;;;1.75;0.40;;;10.00;99.90;;;;;;5030262;28;20061;-81
2023/10/26 02:30:46;;;;;;;1.15;0.60;;;10.00;99.90;;;;;;5032510;28;20518;-80
2023/10/26 02:33:12;;;;;;;1.80;0.70;;;9.90;99.90;;;;;;5029226;28;20033;-81
2023/10/26 02:35:41;;;;;;;0.63;0.63;;;9.90;99.90;;;;;;5030413;28;20056;-82
2023/10/26 02:38:06;;;;;;;1.80;0.47;;;9.90;99.90;;;;;;5014200;28;20034;-82
2023/10/26 02:40:35;;;;;;;0.65;0.65;;;9.90;99.90;;;;;;5030461;28;20017;-81
2023/10/26 02:43:01;;;;;;;1.80;0.80;;;9.80;99.90;;;;;;5031506;28;20489;-81
2023/10/26 02:45:27;;;;;;;3.45;0.80;;;9.80;99.90;;;;;;5029848;28;20037;-81
2023/10/26 02:47:53;;;;;;;0.57;0.57;;;9.80;99.90;;;;;;5035065;28;20037;-82
2023/10/26 02:50:18;;;;;;;20.23;1.75;;;9.70;99.90;;;;;;5013854;28;20037;-80
2023/10/26 02:52:44;;;;;;;13.45;1.25;;;9.70;99.90;;;;;;5043027;28;20477;-81
2023/10/26 02:55:10;;;;;;;30.83;2.33;;;9.80;99.90;;;;;;5028388;28;20049;-80
2023/10/26 02:57:36;;;;;;;0.80;0.73;;;9.70;99.90;;;;;;5037795;28;20080;-80
2023/10/26 03:00:02;;;;;;;1.10;0.90;;;9.70;99.90;;;;;;5014216;28;20033;-80
2023/10/26 03:02:28;;;;;;;78.25;5.50;;;9.70;99.90;;;;;;5030229;28;20790;-79
2023/10/26 03:04:54;;;;;;;9.98;0.98;;;9.70;99.90;;;;;;5013315;28;20057;-81
2023/10/26 03:07:22;;;;;;;1.88;0.88;;;9.70;99.90;;;;;;5030567;28;20037;-82
2023/10/26 03:09:50;;;;;;;3.08;1.00;;;9.70;99.90;;;;;;5021155;28;20034;-80
2023/10/26 03:12:18;;;;;;;18.27;1.70;;;9.70;99.90;;;;;;5028508;28;20036;-79
2023/10/26 03:14:44;;;;;;;0.88;0.88;;;9.70;99.90;;;;;;5037909;28;20060;-80
2023/10/26 03:17:15;;;;;;;1.15;0.95;;;9.70;99.90;;;;;;5029372;28;20470;-80
2023/10/26 03:19:42;;;;;;;0.90;0.90;;;9.70;99.90;;;;;;5029364;28;20095;-80
2023/10/26 03:22:11;;;;;;;39.08;2.65;;;9.60;99.90;;;;;;5027928;28;20067;-80
2023/10/26 03:24:37;;;;;;;50.70;2.33;;;9.60;99.90;;;;;;5031497;28;20566;-80
2023/10/26 03:27:04;;;;;;;11.65;1.08;;;9.60;99.90;;;;;;5028991;28;20495;-80
2023/10/26 03:29:29;;;;;;;58.95;2.85;;;9.60;99.90;;;;;;5030372;28;20132;-82
2023/10/26 03:31:56;;;;;;;3.47;1.05;;;9.50;99.90;;;;;;5029088;28;20112;-80
2023/10/26 03:34:22;;;;;;;1.92;1.40;;;9.50;99.90;;;;;;5029254;28;20047;-81
2023/10/26 03:36:48;;;;;;;1.88;1.52;;;9.40;99.90;;;;;;5034854;28;20064;-80
2023/10/26 03:39:14;;;;;;;1.20;1.10;;;9.40;99.90;;;;;;5012294;28;20057;-81
2023/10/26 03:41:40;;;;;;;1.58;1.20;;;9.30;99.90;;;;;;5011498;28;20025;-80
2023/10/26 03:44:08;;;;;;;4.78;1.48;;;9.30;99.90;;;;;;5033826;28;20413;-81
2023/10/26 03:46:33;;;;;;;3.17;1.30;;;9.20;99.90;;;;;;5025014;28;20060;-80
2023/10/26 03:48:59;;;;;;;1.50;1.30;;;9.20;99.90;;;;;;5026402;28;20490;-80
2023/10/26 03:51:25;;;;;;;3.15;1.42;;;9.20;99.90;;;;;;5030696;28;20060;-81
2023/10/26 03:53:51;;;;;;;3.20;1.30;;;9.20;99.90;;;;;;5030180;28;20041;-80
2023/10/26 03:56:17;;;;;;;3.25;1.40;;;9.10;99.90;;;;;;5028439;28;20029;-79
2023/10/26 03:58:43;;;;;;;45.97;2.58;;;9.10;99.90;;;;;;5031178;28;20567;-80
2023/10/26 04:01:09;;;;;;;1.63;1.35;;;9.10;99.90;;;;;;5026996;28;20393;-80
2023/10/26 04:03:35;;;;;;;48.63;2.85;;;9.10;99.90;;;;;;5027949;28;20033;-82
2023/10/26 04:06:00;;;;;;;28.75;2.67;;;9.10;99.90;;;;;;5030005;28;20113;-81
2023/10/26 04:08:26;;;;;;;12.82;2.10;;;9.20;99.90;;;;;;5010644;28;20037;-80
2023/10/26 04:10:52;;;;;;;1.35;1.25;;;9.10;99.90;;;;;;5025119;28;20030;-80
2023/10/26 04:13:18;;;;;;;7.47;1.33;;;9.20;99.90;;;;;;5027404;28;20025;-80
2023/10/26 04:15:43;;;;;;;1.88;1.17;;;9.10;99.90;;;;;;5028918;28;20499;-81
2023/10/26 04:18:09;;;;;;;2.42;1.40;;;9.20;99.90;;;;;;5027014;28;20026;-81
2023/10/26 04:20:35;;;;;;;25.65;1.80;;;9.10;99.90;;;;;;5027406;28;20068;-80
2023/10/26 04:23:01;;;;;;;5.13;1.00;;;9.10;99.90;;;;;;5030962;28;20025;-81
2023/10/26 04:25:28;;;;;;;99.35;4.60;;;9.10;99.90;;;;;;5030080;28;20045;-82
2023/10/26 04:27:57;;;;;;;3.95;1.05;;;9.10;99.90;;;;;;5027224;28;20045;-81
2023/10/26 04:30:23;;;;;;;19.83;1.67;;;9.10;99.90;;;;;;5042831;28;20036;-80
2023/10/26 04:32:50;;;;;;;16.63;1.50;;;9.00;99.90;;;;;;5028261;28;20437;-80
2023/10/26 04:35:16;;;;;;;74.63;4.53;;;9.00;99.90;;;;;;5028035;28;20062;-81
2023/10/26 04:37:41;;;;;;;1.48;1.30;;;9.10;99.90;;;;;;5030188;28;20462;-81
2023/10/26 04:40:08;;;;;;;36.03;2.42;;;9.10;99.90;;;;;;5015906;28;20409;-83
2023/10/26 04:42:34;;;;;;;75.68;4.15;;;9.00;99.90;;;;;;5030473;28;20106;-82
2023/10/26 04:45:18;;;;;;;22.70;1.42;;;9.00;99.90;;;;;;5032174;28;20048;-79
2023/10/26 04:47:44;;;;;;;1.17;1.08;;;9.00;99.90;;;;;;5034482;28;20033;-82
2023/10/26 04:50:10;;;;;;;78.57;3.58;;;9.00;99.90;;;;;;5035807;28;20029;-83
2023/10/26 04:52:36;;;;;;;9.10;1.40;;;9.00;99.90;;;;;;5028493;28;20401;-83
2023/10/26 04:55:02;;;;;;;16.05;2.10;;;8.90;99.90;;;;;;5040621;28;20056;-83
2023/10/26 04:57:28;;;;;;;4.85;1.60;;;8.90;99.90;;;;;;5028895;28;20512;-82
2023/10/26 04:59:53;;;;;;;1.40;1.30;;;8.90;99.90;;;;;;5030656;28;20018;-83
2023/10/26 05:02:20;;;;;;;4.10;1.33;;;8.90;99.90;;;;;;5033117;28;20036;-82
2023/10/26 05:04:45;;;;;;;4.13;1.25;;;8.90;99.90;;;;;;5038552;28;20026;-83
2023/10/26 05:07:11;;;;;;;3.85;1.48;;;8.80;99.90;;;;;;5034047;28;20553;-81
2023/10/26 05:09:37;;;;;;;2.03;1.60;;;8.80;99.90;;;;;;5034246;28;20064;-82
2023/10/26 05:12:03;;;;;;;2.10;1.30;;;8.80;99.90;;;;;;5032299;28;20037;-82
2023/10/26 05:14:29;;;;;;;12.32;1.70;;;8.80;99.90;;;;;;5034281;28;20033;-80
2023/10/26 05:16:55;;;;;;;1.63;1.50;;;8.80;99.90;;;;;;5030091;28;20545;-82
2023/10/26 05:19:21;;;;;;;2.63;1.50;;;8.80;99.90;;;;;;5032963;28;20037;-83
2023/10/26 05:21:46;;;;;;;2.55;1.50;;;8.80;99.90;;;;;;5031919;28;20033;-81
2023/10/26 05:24:12;;;;;;;2.00;1.48;;;8.70;99.90;;;;;;5032788;28;20135;-83
2023/10/26 05:26:38;;;;;;;4.88;1.30;;;8.70;99.90;;;;;;5029248;28;20022;-82
2023/10/26 05:29:04;;;;;;;1.48;1.23;;;8.70;99.90;;;;;;5033556;28;20383;-81
2023/10/26 05:31:30;;;;;;;1.23;1.13;;;8.60;99.90;;;;;;5014890;28;20038;-79
2023/10/26 05:33:57;;;;;;;36.38;2.90;;;8.50;99.90;;;;;;5049017;28;20725;-82
2023/10/26 05:36:22;;;;;;;27.25;2.47;;;8.50;99.90;;;;;;5036630;28;20041;-82
2023/10/26 05:38:49;;;;;;;180.48;8.43;;;8.50;99.90;;;;;;5033020;28;20030;-82
2023/10/26 05:41:15;;;;;;;5.68;1.40;;;8.50;99.90;;;;;;5036152;28;20041;-82
2023/10/26 05:43:41;;;;;;;2.97;1.17;;;8.50;99.90;;;;;;5041385;28;20034;-82
2023/10/26 05:46:07;;;;;;;15.10;2.10;;;8.40;99.90;;;;;;5034653;28;20068;-82
2023/10/26 05:48:34;;;;;;;135.90;6.93;;;8.40;99.90;;;;;;5035085;28;20037;-80
2023/10/26 05:50:59;;;;;;;1.40;1.27;;;8.40;99.90;;;;;;5034460;28;20465;-81
2023/10/26 05:53:25;;;;;;;88.68;4.78;;;8.40;99.90;;;;;;5032737;28;20052;-82
2023/10/26 05:55:58;;;;;;;3.90;1.88;;;8.40;99.90;;;;;;5035448;28;20043;-81
2023/10/26 05:58:25;;;;;;;13.10;1.75;;;8.40;99.90;;;;;;5030801;28;20117;-82
2023/10/26 06:00:51;;;;;;;2.78;1.63;;;8.30;99.90;;;;;;5032057;28;20485;-80
2023/10/26 06:03:17;;;;;;;1.85;1.58;;;8.30;99.90;;;;;;5034525;28;20116;-82
2023/10/26 06:05:43;;;;;;;2.70;2.00;;;8.30;99.90;;;;;;5036822;28;20029;-81
2023/10/26 06:08:08;;;;;;;2.25;1.80;;;8.30;99.90;;;;;;5009689;28;20053;-81
2023/10/26 06:10:34;;;;;;;3.88;2.00;;;8.30;99.90;;;;;;5031046;28;20037;-81
2023/10/26 06:13:00;;;;;;;6.45;2.10;;;8.30;99.90;;;;;;5030349;28;20029;-82
2023/10/26 06:15:26;;;;;;;5.07;1.90;;;8.30;99.90;;;;;;5033222;28;20076;-82
2023/10/26 06:17:51;;;;;;;3.30;1.95;;;8.30;99.90;;;;;;5034837;28;20025;-80
2023/10/26 06:20:17;;;;;;;18.33;2.47;;;8.20;99.90;;;;;;5037015;28;20022;-81
2023/10/26 06:22:43;;;;;;;40.88;3.45;;;8.20;99.90;;;;;;5037558;28;20428;-80
2023/10/26 06:25:12;;;;;;;24.80;2.67;;;8.20;99.90;;;;;;5001946;28;20048;-81
2023/10/26 06:27:38;;;;;;;117.82;7.00;;;8.20;99.90;;;;;;5033607;28;20025;-81
2023/10/26 06:30:05;;;;;;;113.45;6.63;;;8.20;99.90;;;;;;5036375;28;20442;-80
2023/10/26 06:32:31;;;;;;;15.05;3.28;;;8.20;99.90;;;;;;5032349;28;20049;-81
2023/10/26 06:34:56;;;;;;;4.90;3.40;;;8.20;99.90;;;;;;5032339;28;20033;-82
2023/10/26 06:37:23;;;;;;;38.78;5.15;;;8.20;99.90;;;;;;5034089;28;20059;-79
2023/10/26 06:39:49;;;;;;;5.75;3.90;;;8.20;99.90;;;;;;5013700;28;20688;-81
2023/10/26 06:42:15;;;;;;;4.85;3.53;;;8.20;99.90;;;;;;5032255;28;20026;-81
2023/10/26 06:44:41;;;;;;;8.40;3.50;;;8.30;99.90;;;;;;5038687;28;20048;-81
2023/10/26 06:47:06;;;;;;;8.63;4.38;;;8.30;99.90;;;;;;5029998;28;20152;-82
2023/10/26 06:49:32;;;;;;;50.35;5.45;;;8.30;99.90;;;;;;5033348;28;20033;-81
2023/10/26 06:51:58;;;;;;;8.95;4.25;;;8.30;99.90;;;;;;5032336;28;20033;-81
2023/10/26 06:54:24;;;;;;;5.60;4.07;;;8.30;99.90;;;;;;5044019;28;20128;-80
2023/10/26 06:56:49;;;;;;;12.07;4.60;;;8.30;99.90;;;;;;5050290;28;20037;-80
2023/10/26 06:59:15;;;;;;;6.97;4.32;;;8.30;99.90;;;;;;5035102;28;20058;-82
2023/10/26 07:01:41;;;;;;;6.38;4.68;;;8.40;99.90;;;;;;5030734;28;20451;-82
2023/10/26 07:04:07;;;;;;;4.30;3.75;;;8.40;99.90;;;;;;5036381;28;20064;-82
2023/10/26 07:06:33;;;;;;;68.53;5.97;;;8.40;99.90;;;;;;5035029;28;20083;-81
2023/10/26 07:08:58;;;;;;;6.97;4.00;;;8.40;99.90;;;;;;5028356;28;20444;-81
2023/10/26 07:11:24;;;;;;;7.22;4.30;;;8.40;99.90;;;;;;5032567;28;20044;-81
2023/10/26 07:13:50;;;;;;;15.65;5.43;;;8.40;99.90;;;;;;5036837;28;20053;-81
2023/10/26 07:16:16;;;;;;;17.80;5.70;;;8.50;99.90;;;;;;5032040;28;20025;-81
2023/10/26 07:18:42;;;;;;;6.63;5.18;;;8.50;99.90;;;;;;5037349;28;20026;-81
2023/10/26 07:21:08;;;;;;;6.30;4.95;;;8.50;99.90;;;;;;5033303;28;20755;-80
2023/10/26 07:23:34;;;;;;;7.20;5.22;;;8.60;99.90;;;;;;5038435;28;20069;-81
2023/10/26 07:26:00;;;;;;;10.77;6.05;;;8.60;99.90;;;;;;5032649;28;20036;-82
2023/10/26 07:28:26;;;;;;;7.45;4.65;;;8.60;99.90;;;;;;5032113;28;20087;-80
2023/10/26 07:30:52;;;;;;;5.90;4.68;;;8.70;99.90;;;;;;5016269;28;20127;-81
2023/10/26 07:33:19;;;;;;;6.32;5.03;;;8.70;99.90;;;;;;5035400;28;20622;-82
2023/10/26 07:36:03;;;;;;;6.20;4.33;;;8.70;99.90;;;;;;5032212;28;20463;-80
2023/10/26 07:38:29;;;;;;;14.93;4.60;;;8.70;99.90;;;;;;5037265;28;20255;-81
2023/10/26 07:41:00;;;;;;;11.27;4.45;;;8.80;99.90;;;;;;5036235;28;20500;-80
2023/10/26 07:43:26;;;;;;;6.22;4.18;;;8.80;99.90;;;;;;5039030;28;20058;-82
2023/10/26 07:45:52;;;;;;;8.20;4.40;;;8.80;99.90;;;;;;5037021;28;20067;-81
2023/10/26 07:48:18;;;;;;;6.90;4.82;;;8.90;99.90;;;;;;5030659;28;20044;-80
2023/10/26 07:50:45;;;;;;;5.78;4.20;;;8.90;99.90;;;;;;5030685;28;20057;-82
2023/10/26 07:53:10;;;;;;;8.15;5.00;;;8.90;99.90;;;;;;5042327;28;20041;-81
2023/10/26 07:55:36;;;;;;;8.10;4.85;;;9.00;99.90;;;;;;5045308;28;20029;-83
2023/10/26 07:58:03;;;;;;;10.13;4.57;;;9.00;99.90;;;;;;5037967;28;20029;-80
2023/10/26 08:00:29;;;;;;;10.05;5.15;;;9.00;99.90;;;;;;5047983;28;20044;-83
2023/10/26 08:02:55;;;;;;;9.50;5.80;;;9.00;99.90;;;;;;5034086;28;20029;-82
2023/10/26 08:05:20;;;;;;;7.63;5.70;;;9.00;99.90;;;;;;5036835;28;20044;-82
2023/10/26 08:07:47;;;;;;;7.93;5.75;;;9.00;99.90;;;;;;5032160;28;20037;-82
2023/10/26 08:10:13;;;;;;;8.32;5.60;;;9.00;99.90;;;;;;5018421;28;20030;-82
2023/10/26 08:12:39;;;;;;;8.82;6.50;;;9.10;99.90;;;;;;5041110;28;20037;-81
2023/10/26 08:15:05;;;;;;;9.23;6.45;;;9.10;99.90;;;;;;5042146;28;20113;-81
2023/10/26 08:17:35;;;;;;;8.68;6.78;;;9.20;99.90;;;;;;5041353;28;20113;-82
2023/10/26 08:20:07;;;;;;;8.43;6.00;;;9.20;99.90;;;;;;5040787;28;20508;-82
2023/10/26 08:22:37;;;;;;;10.95;6.78;;;9.20;99.90;;;;;;5041526;28;20037;-80
2023/10/26 08:25:06;;;;;;;10.27;6.88;;;9.30;99.90;;;;;;5048048;28;20033;-81
2023/10/26 08:27:32;;;;;;;11.65;7.32;;;9.30;99.90;;;;;;5039424;28;20044;-82
2023/10/26 08:29:58;;;;;;;8.43;6.57;;;9.40;99.90;;;;;;5039704;28;20608;-80
2023/10/26 08:32:23;;;;;;;10.20;6.88;;;9.40;99.90;;;;;;5040378;28;20042;-80
2023/10/26 08:34:50;;;;;;;10.98;7.30;;;9.40;99.90;;;;;;5039975;28;20025;-81
2023/10/26 08:37:17;;;;;;;10.15;6.75;;;9.40;99.90;;;;;;5041027;28;20036;-80
2023/10/26 08:39:43;;;;;;;10.00;7.60;;;9.50;99.90;;;;;;5037930;28;20037;-79
2023/10/26 08:42:09;;;;;;;9.77;7.15;;;9.50;99.90;;;;;;5036926;28;20088;-80
2023/10/26 08:44:36;;;;;;;9.85;7.40;;;9.50;99.90;;;;;;5043415;28;20448;-81
2023/10/26 08:47:03;;;;;;;10.63;7.45;;;9.60;99.90;;;;;;5035626;28;20454;-83
2023/10/26 08:49:30;;;;;;;14.55;8.70;;;9.60;99.90;;;;;;5020981;28;20026;-79
2023/10/26 08:51:57;;;;;;;10.82;7.30;;;9.70;99.90;;;;;;5036702;28;20447;-82
2023/10/26 08:54:23;;;;;;;9.57;7.20;;;9.70;99.90;;;;;;5045515;28;20079;-80
2023/10/26 08:56:49;;;;;;;8.85;6.80;;;9.70;99.90;;;;;;5039213;28;20552;-79
2023/10/26 08:59:16;;;;;;;10.30;7.45;;;9.80;99.90;;;;;;5039783;28;20052;-79
2023/10/26 09:01:48;;;;;;;11.57;8.02;;;9.80;99.90;;;;;;5035598;28;20030;-80
2023/10/26 09:04:15;;;;;;;10.18;6.70;;;9.80;99.90;;;;;;5034301;28;20026;-80
2023/10/26 09:06:46;;;;;;;10.10;6.40;;;9.90;99.90;;;;;;5036442;28;20597;-80
2023/10/26 09:09:13;;;;;;;9.52;6.20;;;9.90;99.90;;;;;;5036543;28;20061;-79
2023/10/26 09:11:38;;;;;;;8.07;5.90;;;9.90;99.90;;;;;;5038000;28;20052;-79
2023/10/26 09:14:16;;;;;;;7.55;5.78;;;9.90;99.90;;;;;;5035472;28;20034;-81
2023/10/26 09:16:45;;;;;;;8.75;5.35;;;10.00;99.90;;;;;;5033071;28;20033;-80
2023/10/26 09:19:16;;;;;;;7.32;5.32;;;10.00;99.90;;;;;;5035028;28;20030;-80
2023/10/26 09:21:56;;;;;;;8.00;5.50;;;10.00;99.90;;;;;;5035219;28;20393;-81
2023/10/26 09:24:26;;;;;;;7.70;5.90;;;10.00;99.90;;;;;;5041537;28;20044;-80
2023/10/26 09:26:59;;;;;;;6.60;5.28;;;10.00;99.90;;;;;;5037786;28;20045;-78
2023/10/26 09:29:41;;;;;;;9.15;5.57;;;10.00;99.90;;;;;;5034745;28;20037;-81
2023/10/26 09:32:08;;;;;;;6.93;5.55;;;10.10;99.90;;;;;;5031038;28;20119;-79
2023/10/26 09:34:42;;;;;;;10.23;5.90;;;10.10;99.90;;;;;;5032975;28;20034;-80
2023/10/26 09:37:09;;;;;;;7.78;6.35;;;10.20;99.90;;;;;;5038226;28;20065;-78
2023/10/26 09:39:38;;;;;;;7.93;6.07;;;10.20;99.90;;;;;;5035873;28;20069;-79
2023/10/26 09:42:11;;;;;;;9.57;6.90;;;10.30;99.90;;;;;;5035697;28;20021;-81
2023/10/26 09:44:36;;;;;;;7.38;5.72;;;10.40;99.90;;;;;;5033850;28;20086;-79
2023/10/26 09:47:03;;;;;;;8.38;6.55;;;10.50;99.90;;;;;;5035578;28;20033;-80
2023/10/26 09:49:30;;;;;;;7.82;6.18;;;10.60;99.90;;;;;;5038383;28;20033;-80
2023/10/26 09:51:58;;;;;;;7.55;5.88;;;10.70;99.90;;;;;;5033236;28;20028;-80
2023/10/26 09:54:31;;;;;;;8.90;6.20;;;10.60;99.90;;;;;;5035111;28;20037;-80
2023/10/26 09:57:13;;;;;;;7.97;6.25;;;10.70;99.90;;;;;;5035158;28;20022;-80
2023/10/26 09:59:39;;;;;;;8.68;6.68;;;10.60;99.90;;;;;;5038699;28;20032;-80
2023/10/26 10:02:18;;;;;;;8.23;6.07;;;10.60;99.90;;;;;;5034117;28;20112;-79
2023/10/26 10:04:45;;;;;;;8.30;6.32;;;10.60;99.90;;;;;;5055301;28;20094;-80
2023/10/26 10:07:37;;;;;;;6.80;5.40;;;10.60;99.90;;;;;;5036862;28;20057;-80
2023/10/26 10:10:04;;;;;;;6.03;4.97;;;10.60;99.90;;;;;;5031786;28;20041;-79
2023/10/26 10:12:31;;;;;;;6.32;5.28;;;10.50;99.90;;;;;;5035409;28;20109;-81
2023/10/26 10:14:58;;;;;;;5.80;5.03;;;10.50;99.90;;;;;;5034121;28;20481;-81
2023/10/26 10:17:44;;;;;;;5.95;4.75;;;10.50;99.90;;;;;;5035454;28;20033;-78
2023/10/26 10:20:18;;;;;;;6.15;5.22;;;10.40;99.90;;;;;;5035066;28;20523;-80
2023/10/26 10:22:44;;;;;;;6.45;4.90;;;10.40;99.90;;;;;;5034470;28;20562;-81
2023/10/26 10:25:11;;;;;;;4.88;4.35;;;10.40;99.90;;;;;;5038706;28;20025;-79
2023/10/26 10:28:00;;;;;;;6.93;4.50;;;10.50;99.90;;;;;;5033226;28;20076;-81
2023/10/26 10:30:46;;;;;;;7.57;4.82;;;10.60;99.90;;;;;;5029866;28;20045;-79
2023/10/26 10:33:20;;;;;;;9.30;5.07;;;10.60;99.90;;;;;;4986200;28;1236790;-79
2023/10/26 10:35:58;;;;;;;7.38;4.85;;;10.70;99.90;;;;;;5035552;28;20025;-78
2023/10/26 10:38:24;;;;;;;6.30;4.70;;;10.60;99.90;;;;;;5032880;28;20037;-80
2023/10/26 10:40:59;;;;;;;6.50;4.75;;;10.60;99.90;;;;;;5034104;28;20103;-80
2023/10/26 10:43:36;;;;;;;7.20;5.40;;;10.70;99.90;;;;;;5035002;28;20033;-80
2023/10/26 10:46:18;;;;;;;5.88;4.13;;;10.80;99.90;;;;;;5036246;28;20433;-80
2023/10/26 10:49:03;;;;;;;5.78;4.28;;;10.80;99.90;;;;;;5036510;28;20026;-81
2023/10/26 10:51:39;;;;;;;4.45;3.92;;;10.80;99.90;;;;;;5030076;28;20098;-78
2023/10/26 10:54:15;;;;;;;6.15;4.25;;;10.80;99.90;;;;;;5035746;28;20064;-81
2023/10/26 10:56:48;;;;;;;4.40;3.60;;;10.80;99.90;;;;;;5034912;28;20030;-81
2023/10/26 10:59:22;;;;;;;3.35;3.05;;;10.70;99.90;;;;;;5038922;28;20025;-80
2023/10/26 11:02:05;;;;;;;5.43;3.40;;;10.70;99.90;;;;;;5032502;28;20841;-82
2023/10/26 11:04:31;;;;;;;3.90;3.25;;;10.60;99.90;;;;;;5031493;28;20445;-81
2023/10/26 11:06:57;;;;;;;4.85;4.35;;;10.60;99.90;;;;;;5033284;28;20034;-80
2023/10/26 11:09:29;;;;;;;4.38;3.10;;;10.60;99.90;;;;;;5032215;28;20533;-81
2023/10/26 11:11:55;;;;;;;5.30;3.95;;;10.70;99.90;;;;;;5025941;28;20490;-79
2023/10/26 11:14:21;;;;;;;5.93;4.07;;;10.70;99.90;;;;;;5034038;28;20037;-79
2023/10/26 11:16:50;;;;;;;4.20;3.80;;;10.70;99.90;;;;;;5034773;28;20030;-79
2023/10/26 11:19:16;;;;;;;3.67;3.38;;;10.70;99.90;;;;;;5032297;28;20230;-79
2023/10/26 11:21:41;;;;;;;4.15;3.63;;;10.70;99.90;;;;;;5028533;28;20029;-81
2023/10/26 11:24:07;;;;;;;6.03;4.32;;;10.80;99.90;;;;;;5031938;28;20025;-78
2023/10/26 11:26:33;;;;;;;6.78;4.38;;;10.90;99.90;;;;;;5037499;28;20041;-80
2023/10/26 11:29:03;;;;;;;5.78;4.40;;;11.00;99.90;;;;;;5029178;28;20040;-80
2023/10/26 11:31:39;;;;;;;4.78;3.67;;;11.10;99.90;;;;;;5032408;28;20045;-81
2023/10/26 11:34:07;;;;;;;5.25;4.75;;;11.10;99.90;;;;;;5033898;28;20034;-80
2023/10/26 11:36:34;;;;;;;4.53;3.88;;;10.90;99.90;;;;;;5030761;28;20108;-81
2023/10/26 11:39:00;;;;;;;5.72;4.03;;;10.90;99.90;;;;;;5031497;28;20030;-80
2023/10/26 11:41:29;;;;;;;4.63;3.97;;;11.00;99.90;;;;;;5031010;28;20618;-80
2023/10/26 11:43:56;;;;;;;4.57;4.18;;;11.00;99.90;;;;;;5029772;28;20178;-81
2023/10/26 11:46:33;;;;;;;4.45;4.05;;;10.90;99.90;;;;;;5035862;28;20041;-81
2023/10/26 11:48:59;;;;;;;4.85;3.60;;;11.00;99.90;;;;;;5035819;28;20034;-81
2023/10/26 11:51:25;;;;;;;4.20;3.80;;;11.00;99.90;;;;;;5035693;28;20060;-81
2023/10/26 11:53:51;;;;;;;4.85;3.92;;;11.00;99.90;;;;;;5031223;28;20025;-82
2023/10/26 11:56:17;;;;;;;4.13;3.72;;;10.90;99.90;;;;;;5038760;28;20025;-81
2023/10/26 11:58:42;;;;;;;3.97;3.58;;;10.90;99.90;;;;;;5034335;28;20036;-82
2023/10/26 12:01:08;;;;;;;3.85;3.50;;;10.90;99.90;;;;;;5028002;28;20037;-81
2023/10/26 12:03:35;;;;;;;4.60;3.50;;;10.90;99.90;;;;;;5033719;28;20393;-80
2023/10/26 12:06:02;;;;;;;6.70;3.35;;;10.80;99.90;;;;;;5029468;28;20026;-80
2023/10/26 12:08:28;;;;;;;4.00;3.55;;;10.80;99.90;;;;;;5033438;28;20555;-79
2023/10/26 12:10:54;;;;;;;3.95;3.55;;;10.80;99.90;;;;;;5034375;28;20025;-80
2023/10/26 12:13:20;;;;;;;3.85;3.17;;;10.70;99.90;;;;;;5026641;28;20049;-81
2023/10/26 12:15:46;;;;;;;5.88;3.28;;;10.60;99.90;;;;;;5029856;28;20101;-80
2023/10/26 12:18:11;;;;;;;3.50;3.20;;;10.60;99.90;;;;;;5030363;28;20033;-80
2023/10/26 12:20:38;;;;;;;3.45;2.92;;;10.60;99.90;;;;;;5036236;28;20101;-80
2023/10/26 12:23:04;;;;;;;3.20;3.00;;;10.60;99.90;;;;;;5037278;28;20097;-80
2023/10/26 12:25:30;;;;;;;3.15;2.75;;;10.60;99.90;;;;;;5029939;28;20057;-79
2023/10/26 12:27:56;;;;;;;4.25;3.10;;;10.60;99.90;;;;;;5028947;28;20124;-79
2023/10/26 12:30:22;;;;;;;4.93;4.50;;;10.50;99.90;;;;;;5028737;28;20041;-83
2023/10/26 12:32:48;;;;;;;6.22;3.92;;;10.50;99.90;;;;;;5023863;28;20048;-82
2023/10/26 12:35:13;;;;;;;5.25;3.90;;;10.50;99.90;;;;;;5042871;28;20592;-79
2023/10/26 12:37:39;;;;;;;5.18;4.68;;;10.60;99.90;;;;;;5028627;28;20528;-78
2023/10/26 12:40:08;;;;;;;6.65;5.93;;;10.60;99.90;;;;;;5029049;28;20041;-79
2023/10/26 12:42:37;;;;;;;6.78;6.07;;;10.60;99.90;;;;;;5025874;28;20040;-78
2023/10/26 12:45:03;;;;;;;6.05;5.55;;;10.70;99.90;;;;;;5024772;28;20034;-81
2023/10/26 12:47:29;;;;;;;7.50;6.32;;;10.80;99.90;;;;;;5029218;28;20030;-80
2023/10/26 12:49:55;;;;;;;7.95;6.07;;;10.80;99.90;;;;;;5042228;28;20040;-79
2023/10/26 12:52:20;;;;;;;7.88;6.47;;;10.80;99.90;;;;;;4993641;28;20124;-80